Time;durP1;ratioP1;P1;durP2;ratioP2;P2;SDS_P1;SDS_P2;PMS_P1;PMS_P2;Temp;Humidity;BMP_temperature;BMP_pressure;BME280_temperature;BME280_humidity;BME280_pressure;Samples;Min_cycle;Max_cycle;Signal;HPM_P1;HPM_P2
2021/07/03 00:01:58;;;;;;;17.83;13.20;;;14.80;99.90;;;;;;4386902;32;20206;-60
2021/07/03 00:04:25;;;;;;;21.73;13.60;;;14.70;99.90;;;;;;4377245;32;20160;-61
2021/07/03 00:06:53;;;;;;;20.13;13.57;;;14.70;99.90;;;;;;4384026;32;20149;-62
2021/07/03 00:09:20;;;;;;;20.40;13.47;;;14.70;99.90;;;;;;4382293;32;20207;-61
2021/07/03 00:11:50;;;;;;;20.47;13.20;;;14.70;99.90;;;;;;4382195;32;20148;-62
2021/07/03 00:14:18;;;;;;;16.53;12.83;;;14.60;99.90;;;;;;4378707;32;20168;-62
2021/07/03 00:16:45;;;;;;;18.97;13.20;;;14.70;99.90;;;;;;4381475;32;20220;-62
2021/07/03 00:19:12;;;;;;;20.17;13.77;;;14.70;99.90;;;;;;4383377;32;20219;-62
2021/07/03 00:21:41;;;;;;;21.87;15.00;;;14.60;99.90;;;;;;4384837;32;20168;-63
2021/07/03 00:24:08;;;;;;;22.57;14.63;;;14.60;99.90;;;;;;4383344;32;20148;-63
2021/07/03 00:26:35;;;;;;;20.13;13.77;;;14.60;99.90;;;;;;4384782;32;20208;-62
2021/07/03 00:29:02;;;;;;;21.20;14.47;;;14.60;99.90;;;;;;4378710;32;20175;-62
2021/07/03 00:31:31;;;;;;;17.90;13.23;;;14.50;99.90;;;;;;4384339;32;20208;-63
2021/07/03 00:33:58;;;;;;;22.50;13.43;;;14.50;99.90;;;;;;4383178;32;20567;-61
2021/07/03 00:36:24;;;;;;;21.63;13.30;;;14.40;99.90;;;;;;4384041;32;20279;-62
2021/07/03 00:38:51;;;;;;;16.27;11.97;;;14.40;99.90;;;;;;4379605;32;20144;-63
2021/07/03 00:41:19;;;;;;;22.37;13.20;;;14.40;99.90;;;;;;4380309;32;20195;-63
2021/07/03 00:43:46;;;;;;;18.17;13.13;;;14.30;99.90;;;;;;4386825;32;20174;-62
2021/07/03 00:46:13;;;;;;;19.93;14.07;;;14.30;99.90;;;;;;4378831;32;20212;-62
2021/07/03 00:48:41;;;;;;;17.50;12.67;;;14.30;99.90;;;;;;4387888;32;20467;-62
2021/07/03 00:51:08;;;;;;;20.37;14.23;;;14.30;99.90;;;;;;4381090;32;20228;-62
2021/07/03 00:53:35;;;;;;;25.70;15.93;;;14.20;99.90;;;;;;4378181;32;20488;-62
2021/07/03 00:56:07;;;;;;;21.17;13.37;;;14.20;99.90;;;;;;4390976;32;20149;-62
2021/07/03 00:58:34;;;;;;;20.87;14.33;;;14.10;99.90;;;;;;4386819;32;20147;-62
2021/07/03 01:01:03;;;;;;;20.07;14.60;;;14.10;99.90;;;;;;4380711;32;20160;-63
2021/07/03 01:03:30;;;;;;;22.70;14.67;;;14.10;99.90;;;;;;4385382;32;20478;-62
2021/07/03 01:05:58;;;;;;;22.87;14.70;;;14.10;99.90;;;;;;4389247;32;20175;-62
2021/07/03 01:08:25;;;;;;;20.30;15.03;;;14.10;99.90;;;;;;4377257;32;20160;-62
2021/07/03 01:10:51;;;;;;;18.60;14.20;;;14.10;99.90;;;;;;4384340;32;20175;-62
2021/07/03 01:13:20;;;;;;;28.17;14.47;;;14.10;99.90;;;;;;4387238;32;20776;-63
2021/07/03 01:15:47;;;;;;;22.93;15.37;;;14.10;99.90;;;;;;4380141;32;20213;-62
2021/07/03 01:18:14;;;;;;;20.13;14.73;;;14.00;99.90;;;;;;4384329;32;20143;-63
2021/07/03 01:20:41;;;;;;;22.07;14.10;;;14.00;99.90;;;;;;4377657;32;20171;-63
2021/07/03 01:23:09;;;;;;;23.07;15.03;;;14.00;99.90;;;;;;4384282;32;20174;-62
2021/07/03 01:25:39;;;;;;;23.00;16.07;;;14.00;99.90;;;;;;4385593;32;20145;-62
2021/07/03 01:28:06;;;;;;;25.37;17.30;;;14.00;99.90;;;;;;4382540;32;20149;-62
2021/07/03 01:30:35;;;;;;;25.60;16.73;;;14.00;99.90;;;;;;4382091;32;20144;-61
2021/07/03 01:33:02;;;;;;;21.40;15.80;;;14.00;99.90;;;;;;4380045;32;20171;-61
2021/07/03 01:35:30;;;;;;;26.13;15.37;;;14.00;99.90;;;;;;4377762;32;20168;-61
2021/07/03 01:37:57;;;;;;;23.87;16.43;;;13.90;99.90;;;;;;4379491;32;20160;-61
2021/07/03 01:40:28;;;;;;;24.40;16.40;;;13.90;99.90;;;;;;4380844;32;20162;-62
2021/07/03 01:42:57;;;;;;;23.37;17.60;;;13.90;99.90;;;;;;4380695;32;20175;-61
2021/07/03 01:45:24;;;;;;;21.30;15.23;;;13.90;99.90;;;;;;4382198;32;20214;-62
2021/07/03 01:47:51;;;;;;;24.27;16.50;;;13.80;99.90;;;;;;4382088;32;20210;-62
2021/07/03 01:50:18;;;;;;;26.80;18.13;;;13.80;99.90;;;;;;4381042;32;20164;-61
2021/07/03 01:52:45;;;;;;;24.63;17.13;;;13.80;99.90;;;;;;4379078;32;20273;-61
2021/07/03 01:55:13;;;;;;;26.97;18.07;;;13.80;99.90;;;;;;4383223;32;20588;-62
2021/07/03 01:57:41;;;;;;;26.53;18.23;;;13.80;99.90;;;;;;4381654;32;20210;-61
2021/07/03 02:00:10;;;;;;;24.93;16.90;;;13.80;99.90;;;;;;4381677;32;20160;-63
2021/07/03 02:02:38;;;;;;;25.73;16.13;;;13.80;99.90;;;;;;4384360;32;20148;-63
2021/07/03 02:05:06;;;;;;;25.27;16.43;;;13.70;99.90;;;;;;4380775;32;20235;-61
2021/07/03 02:07:34;;;;;;;23.97;16.33;;;13.70;99.90;;;;;;4378936;32;20536;-62
2021/07/03 02:10:00;;;;;;;24.90;17.07;;;13.80;99.90;;;;;;4373775;32;20200;-62
2021/07/03 02:12:28;;;;;;;23.07;16.43;;;13.70;99.90;;;;;;4375034;32;20239;-62
2021/07/03 02:15:08;;;;;;;24.90;17.20;;;13.70;99.90;;;;;;4375730;32;20259;-61
2021/07/03 02:17:38;;;;;;;24.87;16.17;;;13.70;99.90;;;;;;4379627;32;20586;-62
2021/07/03 02:20:06;;;;;;;29.10;17.47;;;13.70;99.90;;;;;;4374586;32;20271;-62
2021/07/03 02:22:33;;;;;;;24.60;16.80;;;13.70;99.90;;;;;;4373310;32;20228;-61
2021/07/03 02:25:00;;;;;;;28.90;19.10;;;13.70;99.90;;;;;;4372699;32;20600;-59
2021/07/03 02:27:27;;;;;;;25.63;16.90;;;13.70;99.90;;;;;;4379672;32;20153;-60
2021/07/03 02:29:54;;;;;;;28.20;16.93;;;13.70;99.90;;;;;;4384042;32;20198;-61
2021/07/03 02:32:22;;;;;;;26.70;19.10;;;13.70;99.90;;;;;;4379260;32;20180;-60
2021/07/03 02:34:49;;;;;;;33.60;19.97;;;13.70;99.90;;;;;;4331810;32;1723687;-62
2021/07/03 02:37:16;;;;;;;27.23;19.20;;;13.60;99.90;;;;;;4378142;32;20182;-62
2021/07/03 02:39:43;;;;;;;26.87;18.20;;;13.70;99.90;;;;;;4386604;32;20187;-61
2021/07/03 02:42:12;;;;;;;26.03;18.03;;;13.70;99.90;;;;;;4376849;32;20157;-61
2021/07/03 02:44:39;;;;;;;28.33;18.60;;;13.60;99.90;;;;;;4381777;32;20446;-61
2021/07/03 02:47:06;;;;;;;28.37;18.60;;;13.60;99.90;;;;;;4377910;32;20161;-62
2021/07/03 02:49:34;;;;;;;27.80;19.20;;;13.70;99.90;;;;;;4379751;32;20527;-62
2021/07/03 02:52:04;;;;;;;27.83;19.03;;;13.60;99.90;;;;;;4381862;32;20210;-61
2021/07/03 02:54:31;;;;;;;25.27;19.10;;;13.60;99.90;;;;;;4384983;32;20278;-61
2021/07/03 02:56:58;;;;;;;30.03;20.57;;;13.70;99.90;;;;;;4379939;32;20492;-62
2021/07/03 02:59:28;;;;;;;28.90;19.77;;;13.70;99.90;;;;;;4382538;32;20172;-61
2021/07/03 03:01:55;;;;;;;31.80;20.37;;;13.70;99.90;;;;;;4382492;32;20527;-61
2021/07/03 03:04:22;;;;;;;29.80;19.97;;;13.80;99.90;;;;;;4378253;32;20207;-62
2021/07/03 03:06:50;;;;;;;29.13;20.10;;;13.80;99.90;;;;;;4381984;32;20182;-62
2021/07/03 03:09:17;;;;;;;29.13;19.23;;;13.80;99.90;;;;;;4381186;32;20167;-62
2021/07/03 03:11:44;;;;;;;28.50;20.27;;;13.80;99.90;;;;;;4383876;32;20187;-62
2021/07/03 03:14:11;;;;;;;30.03;21.07;;;13.80;99.90;;;;;;4378878;32;20216;-61
2021/07/03 03:16:37;;;;;;;31.57;21.73;;;13.80;99.90;;;;;;4383118;32;20160;-61
2021/07/03 03:19:05;;;;;;;31.40;20.13;;;13.90;99.90;;;;;;4382073;32;20199;-61
2021/07/03 03:21:31;;;;;;;30.50;22.03;;;13.90;99.90;;;;;;4388837;32;20183;-62
2021/07/03 03:24:00;;;;;;;28.40;19.47;;;14.00;99.90;;;;;;4381785;32;20156;-61
2021/07/03 03:26:26;;;;;;;27.30;20.00;;;14.00;99.90;;;;;;4384755;32;20161;-62
2021/07/03 03:28:53;;;;;;;33.83;22.17;;;14.10;99.90;;;;;;4385303;32;20182;-61
2021/07/03 03:31:20;;;;;;;30.00;21.07;;;14.10;99.90;;;;;;4382838;32;20481;-61
2021/07/03 03:33:50;;;;;;;31.60;20.17;;;14.20;99.90;;;;;;4380351;32;20179;-61
2021/07/03 03:36:17;;;;;;;31.17;21.10;;;14.20;99.90;;;;;;4377664;32;20168;-62
2021/07/03 03:38:44;;;;;;;34.93;21.47;;;14.20;99.90;;;;;;4386528;32;20305;-62
2021/07/03 03:41:12;;;;;;;32.80;21.97;;;14.30;99.90;;;;;;4382173;32;20291;-62
2021/07/03 03:43:42;;;;;;;33.87;21.93;;;14.30;99.90;;;;;;4385153;32;20161;-61
2021/07/03 03:46:09;;;;;;;34.03;22.10;;;14.30;99.90;;;;;;4382824;32;20182;-63
2021/07/03 03:48:36;;;;;;;30.47;22.30;;;14.40;99.90;;;;;;4387138;32;20192;-61
2021/07/03 03:51:03;;;;;;;31.77;22.63;;;14.40;99.90;;;;;;4380228;32;20210;-62
2021/07/03 03:53:30;;;;;;;32.97;23.13;;;14.40;99.90;;;;;;4379072;32;20661;-61
2021/07/03 03:55:59;;;;;;;35.50;22.63;;;14.50;99.90;;;;;;4383088;32;20592;-61
2021/07/03 03:58:28;;;;;;;34.23;22.13;;;14.60;99.90;;;;;;4382942;32;20228;-61
2021/07/03 04:00:54;;;;;;;39.67;22.83;;;14.60;99.90;;;;;;4382555;32;20206;-62
2021/07/03 04:03:21;;;;;;;33.60;21.23;;;14.70;99.90;;;;;;4386040;32;20172;-60
2021/07/03 04:05:48;;;;;;;31.13;21.40;;;14.80;99.90;;;;;;4392294;32;20167;-60
2021/07/03 04:08:15;;;;;;;36.60;23.23;;;14.90;99.90;;;;;;4384747;32;20187;-63
2021/07/03 04:10:42;;;;;;;32.37;23.40;;;14.90;99.90;;;;;;4383938;32;20191;-63
2021/07/03 04:13:09;;;;;;;30.97;21.40;;;14.90;99.90;;;;;;4379883;32;20165;-63
2021/07/03 04:15:39;;;;;;;33.80;22.13;;;14.80;99.90;;;;;;4382824;32;20298;-62
2021/07/03 04:18:06;;;;;;;30.67;21.57;;;14.80;99.90;;;;;;4386802;32;20199;-63
2021/07/03 04:20:34;;;;;;;32.70;21.73;;;14.80;99.90;;;;;;4387263;32;20191;-59
2021/07/03 04:23:01;;;;;;;36.13;23.77;;;14.80;99.90;;;;;;4380667;32;20212;-62
2021/07/03 04:25:28;;;;;;;30.30;21.97;;;14.80;99.90;;;;;;4384402;32;20156;-61
2021/07/03 04:27:55;;;;;;;30.27;22.63;;;14.80;99.90;;;;;;4383255;32;20176;-61
2021/07/03 04:30:24;;;;;;;30.93;21.40;;;14.90;99.90;;;;;;4380449;32;20164;-62
2021/07/03 04:32:53;;;;;;;29.73;21.93;;;14.90;99.90;;;;;;4383582;32;20165;-61
2021/07/03 04:35:22;;;;;;;28.07;22.20;;;15.00;99.90;;;;;;4379528;32;20210;-60
2021/07/03 04:37:49;;;;;;;31.90;22.80;;;15.00;99.90;;;;;;4379670;32;20174;-61
2021/07/03 04:40:16;;;;;;;36.10;25.03;;;15.10;99.90;;;;;;4384917;32;20648;-61
2021/07/03 04:42:43;;;;;;;38.67;24.97;;;15.10;99.90;;;;;;4385258;32;20183;-62
2021/07/03 04:45:11;;;;;;;32.83;23.23;;;15.20;99.90;;;;;;4380770;32;20163;-61
2021/07/03 04:47:38;;;;;;;36.53;25.57;;;15.20;99.90;;;;;;4383213;32;20180;-61
2021/07/03 04:50:07;;;;;;;34.43;23.53;;;15.40;99.90;;;;;;4383621;32;20179;-62
2021/07/03 04:52:34;;;;;;;33.63;24.03;;;15.50;99.90;;;;;;4386336;32;20157;-60
2021/07/03 04:55:01;;;;;;;33.00;23.10;;;15.50;99.90;;;;;;4382328;32;20168;-60
2021/07/03 04:57:28;;;;;;;29.77;21.73;;;15.50;99.90;;;;;;4386524;32;20205;-61
2021/07/03 04:59:57;;;;;;;29.60;20.87;;;15.50;99.90;;;;;;4389354;32;20179;-62
2021/07/03 05:02:24;;;;;;;33.43;24.07;;;15.50;99.90;;;;;;4385971;32;20168;-62
2021/07/03 05:04:54;;;;;;;35.40;23.37;;;15.60;99.90;;;;;;4384900;32;20159;-62
2021/07/03 05:07:22;;;;;;;33.50;22.93;;;15.80;99.90;;;;;;4389336;32;20915;-61
2021/07/03 05:09:49;;;;;;;37.47;24.57;;;15.80;99.90;;;;;;4382383;32;20203;-61
2021/07/03 05:12:16;;;;;;;35.97;24.53;;;16.00;99.90;;;;;;4377876;32;20157;-60
2021/07/03 05:14:46;;;;;;;36.07;24.33;;;16.00;99.90;;;;;;4385515;32;20227;-61
2021/07/03 05:17:13;;;;;;;36.33;25.30;;;16.10;99.90;;;;;;4381699;32;20215;-62
2021/07/03 05:19:39;;;;;;;35.40;24.57;;;16.20;99.90;;;;;;4378873;32;20179;-62
2021/07/03 05:22:08;;;;;;;38.00;28.57;;;16.40;99.90;;;;;;4381125;32;20173;-63
2021/07/03 05:24:39;;;;;;;39.63;26.20;;;16.70;99.90;;;;;;4382176;32;20156;-62
2021/07/03 05:27:06;;;;;;;34.70;25.83;;;16.90;99.90;;;;;;4377504;32;20172;-63
2021/07/03 05:29:32;;;;;;;35.93;25.80;;;17.00;99.90;;;;;;4382016;32;20227;-60
2021/07/03 05:32:02;;;;;;;41.87;26.97;;;17.10;99.90;;;;;;4385730;32;20207;-61
2021/07/03 05:34:29;;;;;;;42.20;28.83;;;17.20;99.90;;;;;;4380789;32;20182;-63
2021/07/03 05:36:57;;;;;;;36.57;25.77;;;17.40;99.90;;;;;;4375571;32;20156;-60
2021/07/03 05:39:24;;;;;;;38.00;27.47;;;17.70;99.90;;;;;;4376112;32;20152;-61
2021/07/03 05:41:52;;;;;;;38.77;26.60;;;18.00;99.90;;;;;;4377889;32;20169;-61
2021/07/03 05:44:20;;;;;;;42.03;29.57;;;18.40;99.90;;;;;;4385128;32;20171;-63
2021/07/03 05:46:47;;;;;;;43.00;27.43;;;18.90;99.90;;;;;;4383667;32;20234;-61
2021/07/03 05:49:16;;;;;;;39.23;27.30;;;19.50;99.90;;;;;;4386598;32;20164;-63
2021/07/03 05:51:43;;;;;;;36.23;26.90;;;20.50;99.90;;;;;;4378853;32;20656;-61
2021/07/03 05:54:11;;;;;;;37.33;26.47;;;20.70;99.90;;;;;;4377795;32;20152;-63
2021/07/03 05:56:38;;;;;;;40.10;27.80;;;20.50;99.90;;;;;;4381208;32;20194;-62
2021/07/03 05:59:06;;;;;;;35.53;26.27;;;20.40;99.90;;;;;;4379269;32;20156;-61
2021/07/03 06:01:37;;;;;;;39.57;28.07;;;20.30;99.90;;;;;;4377587;32;20199;-61
2021/07/03 06:04:05;;;;;;;35.87;26.03;;;20.10;99.90;;;;;;4382980;32;20152;-62
2021/07/03 06:06:34;;;;;;;43.07;29.63;;;20.10;99.90;;;;;;4375564;32;20266;-63
2021/07/03 06:09:01;;;;;;;39.50;27.20;;;20.10;99.90;;;;;;4376977;32;20180;-63
2021/07/03 06:11:28;;;;;;;37.27;26.27;;;20.10;99.90;;;;;;4376377;32;20180;-61
2021/07/03 06:13:55;;;;;;;38.17;28.10;;;20.10;99.90;;;;;;4376043;32;20149;-63
2021/07/03 06:16:27;;;;;;;37.37;27.03;;;20.00;99.90;;;;;;4388221;32;20164;-63
2021/07/03 06:18:55;;;;;;;36.70;26.83;;;20.00;99.90;;;;;;4391920;32;20225;-63
2021/07/03 06:21:22;;;;;;;41.20;28.13;;;20.00;99.90;;;;;;4378127;32;20210;-61
2021/07/03 06:23:49;;;;;;;34.50;26.27;;;19.90;99.90;;;;;;4376150;32;20540;-62
2021/07/03 06:26:16;;;;;;;40.07;28.47;;;19.70;99.90;;;;;;4377291;32;20160;-63
2021/07/03 06:28:43;;;;;;;40.77;26.67;;;19.50;99.90;;;;;;4376609;32;20175;-63
2021/07/03 06:31:10;;;;;;;37.17;27.83;;;19.40;99.90;;;;;;4386640;32;20156;-62
2021/07/03 06:33:38;;;;;;;38.70;27.67;;;19.40;99.90;;;;;;4380615;32;20178;-62
2021/07/03 06:36:05;;;;;;;40.67;28.90;;;19.10;99.90;;;;;;4377681;32;20160;-61
2021/07/03 06:38:35;;;;;;;40.70;27.43;;;19.00;99.90;;;;;;4379751;32;20197;-60
2021/07/03 06:41:04;;;;;;;37.80;27.77;;;19.00;99.90;;;;;;4381867;32;20577;-62
2021/07/03 06:43:31;;;;;;;33.07;25.43;;;19.20;99.90;;;;;;4380136;32;20509;-61
2021/07/03 06:46:03;;;;;;;39.87;26.33;;;19.40;99.90;;;;;;4378671;32;20228;-63
2021/07/03 06:48:30;;;;;;;35.30;26.03;;;19.40;99.90;;;;;;4377687;32;20175;-61
2021/07/03 06:50:58;;;;;;;34.20;26.43;;;19.40;99.90;;;;;;4378117;32;20164;-64
2021/07/03 06:53:25;;;;;;;37.30;27.00;;;19.30;99.90;;;;;;4377868;32;20662;-64
2021/07/03 06:55:52;;;;;;;34.80;26.60;;;19.40;99.90;;;;;;4379486;32;20203;-63
2021/07/03 06:58:19;;;;;;;34.70;24.33;;;19.40;99.90;;;;;;4378375;32;20616;-62
2021/07/03 07:00:46;;;;;;;36.83;25.70;;;19.60;99.90;;;;;;4378971;32;20525;-63
2021/07/03 07:03:13;;;;;;;39.87;26.20;;;19.80;99.90;;;;;;4378548;32;20187;-63
2021/07/03 07:05:40;;;;;;;35.73;25.70;;;19.90;99.90;;;;;;4376327;32;20473;-62
2021/07/03 07:08:08;;;;;;;33.40;23.60;;;20.00;99.90;;;;;;4375097;32;20187;-63
2021/07/03 07:10:35;;;;;;;34.37;23.80;;;20.10;99.90;;;;;;4376950;32;20164;-62
2021/07/03 07:13:06;;;;;;;33.20;23.37;;;20.30;99.90;;;;;;4382506;32;20161;-62
2021/07/03 07:15:33;;;;;;;33.27;24.27;;;20.40;99.90;;;;;;4381589;32;20213;-61
2021/07/03 07:18:00;;;;;;;32.57;24.73;;;20.60;99.90;;;;;;4379007;32;20516;-61
2021/07/03 07:20:27;;;;;;;35.73;24.60;;;20.50;99.90;;;;;;4382096;32;20160;-61
2021/07/03 07:22:54;;;;;;;34.97;24.20;;;20.50;99.90;;;;;;4381607;32;20203;-63
2021/07/03 07:25:22;;;;;;;29.13;21.53;;;20.60;99.90;;;;;;4381093;32;20164;-62
2021/07/03 07:27:49;;;;;;;31.00;23.33;;;20.60;99.90;;;;;;4380694;32;20220;-63
2021/07/03 07:30:18;;;;;;;31.17;22.23;;;20.70;99.90;;;;;;4383050;32;20640;-62
2021/07/03 07:32:45;;;;;;;27.43;20.97;;;20.80;99.90;;;;;;4382080;32;20171;-63
2021/07/03 07:35:12;;;;;;;31.13;21.10;;;20.90;99.90;;;;;;4383073;32;20182;-61
2021/07/03 07:37:43;;;;;;;27.00;20.23;;;21.00;99.90;;;;;;4380802;32;20225;-62
2021/07/03 07:40:12;;;;;;;26.47;20.83;;;21.10;99.90;;;;;;4379031;32;20161;-63
2021/07/03 07:42:40;;;;;;;27.27;19.10;;;21.30;99.90;;;;;;4381134;32;20231;-62
2021/07/03 07:45:08;;;;;;;24.70;18.00;;;21.40;99.90;;;;;;4382673;32;20164;-62
2021/07/03 07:47:35;;;;;;;25.77;18.77;;;21.60;99.90;;;;;;4384148;32;20183;-60
2021/07/03 07:50:02;;;;;;;23.43;17.40;;;21.80;99.90;;;;;;4381048;32;20198;-63
2021/07/03 07:52:29;;;;;;;23.30;18.23;;;21.90;99.90;;;;;;4382825;32;20547;-63
2021/07/03 07:54:56;;;;;;;23.43;17.53;;;22.00;99.90;;;;;;4382329;32;20160;-63
2021/07/03 07:57:23;;;;;;;21.63;16.93;;;22.20;99.90;;;;;;4385103;32;20227;-61
2021/07/03 07:59:51;;;;;;;25.20;17.30;;;22.80;99.90;;;;;;4383362;32;20187;-63
2021/07/03 08:02:18;;;;;;;22.67;16.03;;;24.20;99.90;;;;;;4378587;32;20237;-64
2021/07/03 08:04:45;;;;;;;21.00;16.23;;;25.10;99.90;;;;;;4379545;32;20255;-63
2021/07/03 08:07:14;;;;;;;20.07;16.00;;;25.50;99.90;;;;;;4378460;32;20536;-63
2021/07/03 08:09:45;;;;;;;20.30;15.20;;;26.40;99.80;;;;;;4380082;32;20634;-61
2021/07/03 08:12:12;;;;;;;17.77;12.98;;;31.80;94.40;;;;;;4387619;32;20215;-62
2021/07/03 08:14:39;;;;;;;18.70;13.50;;;38.20;72.50;;;;;;4380575;32;20152;-65
2021/07/03 08:17:07;;;;;;;14.20;10.75;;;42.00;55.10;;;;;;4385686;32;20183;-65
2021/07/03 08:19:34;;;;;;;13.52;12.10;;;45.20;50.00;;;;;;4381950;32;20184;-62
2021/07/03 08:22:01;;;;;;;11.18;9.30;;;47.50;44.70;;;;;;4385737;32;20711;-63
2021/07/03 08:24:28;;;;;;;10.75;9.75;;;49.70;42.10;;;;;;4388038;32;20434;-62
2021/07/03 08:26:57;;;;;;;11.38;9.82;;;50.20;38.90;;;;;;4378834;32;20232;-62
2021/07/03 08:29:24;;;;;;;13.98;12.15;;;51.10;36.60;;;;;;4382058;32;20149;-63
2021/07/03 08:31:57;;;;;;;9.85;8.95;;;51.00;35.80;;;;;;4379438;32;20175;-63
2021/07/03 08:34:25;;;;;;;10.63;9.52;;;51.70;34.30;;;;;;4382890;32;20192;-63
2021/07/03 08:36:52;;;;;;;10.23;8.35;;;51.80;33.90;;;;;;4375144;32;20171;-62
2021/07/03 08:39:19;;;;;;;10.15;9.15;;;51.60;33.80;;;;;;4379360;32;20275;-62
2021/07/03 08:41:46;;;;;;;9.25;8.35;;;52.20;33.20;;;;;;4379124;32;20168;-65
2021/07/03 08:44:16;;;;;;;11.00;9.02;;;52.20;33.30;;;;;;4379511;32;20187;-64
2021/07/03 08:46:44;;;;;;;8.30;6.85;;;52.80;33.40;;;;;;4383839;32;20172;-65
2021/07/03 08:49:12;;;;;;;10.35;9.25;;;53.60;32.00;;;;;;4380556;32;20565;-63
2021/07/03 08:51:42;;;;;;;7.20;6.50;;;53.30;31.40;;;;;;4388209;32;20195;-65
2021/07/03 08:54:09;;;;;;;9.20;7.95;;;52.60;32.20;;;;;;4392178;32;20144;-63
2021/07/03 08:56:36;;;;;;;8.05;7.25;;;53.00;32.00;;;;;;4391846;32;20164;-65
2021/07/03 08:59:03;;;;;;;9.32;8.43;;;53.10;32.10;;;;;;4392434;32;20587;-61
2021/07/03 09:01:30;;;;;;;12.23;10.45;;;53.30;31.20;;;;;;4392382;32;20594;-63
2021/07/03 09:03:59;;;;;;;10.80;8.55;;;52.40;31.40;;;;;;4391415;32;20152;-64
2021/07/03 09:06:31;;;;;;;12.68;9.70;;;51.50;32.20;;;;;;4391661;32;20144;-63
2021/07/03 09:09:00;;;;;;;11.70;9.90;;;52.00;31.60;;;;;;4392913;32;20159;-63
2021/07/03 09:11:30;;;;;;;9.05;8.18;;;52.30;31.90;;;;;;4391666;32;20171;-63
2021/07/03 09:14:01;;;;;;;10.98;9.02;;;52.40;31.50;;;;;;4392342;32;20148;-63
2021/07/03 09:16:32;;;;;;;10.40;9.40;;;52.90;31.20;;;;;;4392693;32;20498;-63
2021/07/03 09:19:00;;;;;;;9.35;8.13;;;52.70;30.90;;;;;;4391470;32;20160;-64
2021/07/03 09:21:27;;;;;;;7.32;6.62;;;52.80;31.10;;;;;;4391490;32;20171;-63
2021/07/03 09:23:54;;;;;;;8.60;7.80;;;52.80;30.70;;;;;;4391798;32;20498;-63
2021/07/03 09:26:22;;;;;;;8.10;7.35;;;53.70;30.20;;;;;;4392125;32;20152;-64
2021/07/03 09:28:50;;;;;;;9.25;8.43;;;51.20;30.10;;;;;;4392633;32;20156;-64
2021/07/03 09:31:19;;;;;;;8.93;8.02;;;48.70;31.50;;;;;;4392729;32;20167;-62
2021/07/03 09:33:49;;;;;;;8.27;7.28;;;45.10;33.00;;;;;;4391304;32;20217;-63
2021/07/03 09:36:25;;;;;;;8.82;8.02;;;41.60;35.10;;;;;;4391912;32;20148;-62
2021/07/03 09:38:54;;;;;;;7.97;7.18;;;39.10;38.20;;;;;;4391034;32;20164;-65
2021/07/03 09:41:24;;;;;;;8.57;7.53;;;37.00;39.50;;;;;;4391152;32;20178;-64
2021/07/03 09:43:55;;;;;;;7.85;7.05;;;35.30;41.50;;;;;;4391005;32;20528;-65
2021/07/03 09:46:23;;;;;;;8.65;7.35;;;34.00;43.60;;;;;;4391124;32;20160;-64
2021/07/03 09:48:51;;;;;;;7.70;6.90;;;35.30;43.40;;;;;;4391161;32;20167;-66
2021/07/03 09:51:18;;;;;;;9.18;8.10;;;36.40;42.50;;;;;;4392440;32;20156;-63
2021/07/03 09:53:45;;;;;;;9.85;8.00;;;37.80;41.30;;;;;;4392714;32;20810;-63
2021/07/03 09:56:12;;;;;;;9.32;7.60;;;39.80;39.90;;;;;;4390941;32;20179;-64
2021/07/03 09:58:44;;;;;;;8.25;7.55;;;40.20;38.70;;;;;;4390937;32;20208;-65
2021/07/03 10:01:11;;;;;;;9.85;8.13;;;38.70;39.70;;;;;;4392559;32;20144;-63
2021/07/03 10:03:39;;;;;;;8.32;7.45;;;37.10;40.90;;;;;;4391310;32;20620;-65
2021/07/03 10:06:08;;;;;;;10.27;7.45;;;36.40;42.90;;;;;;4392086;32;20205;-64
2021/07/03 10:08:41;;;;;;;8.32;7.47;;;34.80;42.70;;;;;;4390819;32;20220;-64
2021/07/03 10:11:11;;;;;;;12.37;8.45;;;33.30;44.60;;;;;;4390896;32;20629;-64
2021/07/03 10:13:40;;;;;;;10.05;8.60;;;32.60;45.90;;;;;;4390633;32;20200;-63
2021/07/03 10:16:09;;;;;;;12.77;8.82;;;32.10;46.50;;;;;;4389271;32;20152;-64
2021/07/03 10:18:38;;;;;;;13.95;9.60;;;31.90;47.60;;;;;;4390596;32;20153;-63
2021/07/03 10:21:11;;;;;;;11.20;8.82;;;31.30;48.70;;;;;;4390804;32;20164;-62
2021/07/03 10:23:40;;;;;;;13.25;9.27;;;30.80;49.80;;;;;;4390226;32;20152;-61
2021/07/03 10:26:08;;;;;;;11.35;9.38;;;30.40;51.20;;;;;;4390379;32;20151;-61
2021/07/03 10:28:36;;;;;;;12.88;9.32;;;29.90;51.60;;;;;;4390705;32;20167;-61
2021/07/03 10:31:08;;;;;;;11.18;9.07;;;29.40;54.10;;;;;;4390505;32;20160;-62
2021/07/03 10:33:46;;;;;;;12.80;9.60;;;28.90;54.10;;;;;;4390572;32;20224;-61
2021/07/03 10:36:24;;;;;;;10.68;9.57;;;28.60;55.50;;;;;;4390407;32;20250;-63
2021/07/03 10:38:52;;;;;;;11.73;10.07;;;28.40;57.20;;;;;;4389921;32;20191;-61
2021/07/03 10:41:23;;;;;;;11.95;9.85;;;28.00;58.10;;;;;;4380562;32;20164;-62
2021/07/03 10:43:51;;;;;;;13.50;10.30;;;27.70;60.70;;;;;;4382762;32;20246;-61
2021/07/03 10:46:32;;;;;;;14.93;10.68;;;27.40;62.80;;;;;;4383076;32;20160;-61
2021/07/03 10:49:01;;;;;;;12.10;8.65;;;27.20;64.10;;;;;;4380102;32;20202;-62
2021/07/03 10:51:36;;;;;;;13.02;10.70;;;27.00;67.10;;;;;;4380787;32;20168;-62
2021/07/03 10:54:08;;;;;;;13.35;10.60;;;27.00;68.30;;;;;;4380946;32;20180;-62
2021/07/03 10:56:41;;;;;;;13.13;10.88;;;27.00;69.80;;;;;;4383583;32;20153;-64
2021/07/03 10:59:16;;;;;;;17.15;10.75;;;26.90;70.00;;;;;;4384080;32;20222;-63
2021/07/03 11:01:46;;;;;;;15.15;10.90;;;27.00;72.50;;;;;;4381227;32;20159;-62
2021/07/03 11:04:16;;;;;;;11.80;10.52;;;27.00;74.00;;;;;;4384530;32;20215;-64
2021/07/03 11:06:44;;;;;;;12.23;10.48;;;26.90;75.30;;;;;;4381508;32;20164;-61
2021/07/03 11:09:32;;;;;;;12.80;10.27;;;26.80;75.90;;;;;;4382175;32;20633;-61
2021/07/03 11:12:12;;;;;;;11.85;8.88;;;26.70;77.00;;;;;;4382429;32;20168;-64
2021/07/03 11:14:41;;;;;;;12.23;10.27;;;27.00;80.10;;;;;;4382446;32;20175;-62
2021/07/03 11:17:09;;;;;;;15.07;10.57;;;27.40;79.00;;;;;;4379704;32;20229;-64
2021/07/03 11:19:36;;;;;;;12.57;9.75;;;28.00;76.90;;;;;;4381568;32;20589;-64
2021/07/03 11:22:09;;;;;;;14.25;11.18;;;28.90;75.00;;;;;;4383074;32;20212;-62
2021/07/03 11:24:44;;;;;;;13.73;11.65;;;29.60;71.50;;;;;;4381470;32;20579;-64
2021/07/03 11:27:11;;;;;;;14.57;11.43;;;30.00;68.60;;;;;;4383659;32;20164;-62
2021/07/03 11:29:38;;;;;;;14.48;10.90;;;29.90;68.50;;;;;;4384707;32;20175;-63
2021/07/03 11:32:07;;;;;;;14.52;10.60;;;29.60;68.80;;;;;;4385621;32;20223;-62
2021/07/03 11:34:36;;;;;;;11.48;10.30;;;29.20;69.60;;;;;;4375596;32;20620;-62
2021/07/03 11:37:03;;;;;;;11.68;10.45;;;29.10;68.20;;;;;;4384103;32;20552;-62
2021/07/03 11:39:33;;;;;;;12.80;10.00;;;29.50;68.80;;;;;;4381221;32;20176;-62
2021/07/03 11:42:02;;;;;;;15.38;11.43;;;29.70;68.20;;;;;;4386547;32;20495;-63
2021/07/03 11:44:28;;;;;;;11.15;9.95;;;29.80;67.10;;;;;;4382030;32;20191;-62
2021/07/03 11:46:56;;;;;;;11.77;10.50;;;29.50;68.50;;;;;;4380063;32;20188;-61
2021/07/03 11:49:23;;;;;;;14.18;10.73;;;29.30;69.00;;;;;;4379494;32;20616;-62
2021/07/03 11:52:02;;;;;;;11.68;9.00;;;29.00;70.50;;;;;;4381519;32;20242;-63
2021/07/03 11:54:29;;;;;;;10.52;8.05;;;28.70;71.80;;;;;;4384871;32;20246;-64
2021/07/03 11:57:00;;;;;;;9.98;8.75;;;28.50;73.70;;;;;;4377721;32;20230;-63
2021/07/03 11:59:30;;;;;;;10.85;9.25;;;28.20;74.30;;;;;;4383045;32;20511;-62
2021/07/03 12:02:00;;;;;;;8.93;7.93;;;28.00;73.50;;;;;;4380237;32;20179;-63
2021/07/03 12:04:30;;;;;;;12.32;9.35;;;27.70;75.10;;;;;;4384064;32;20235;-63
2021/07/03 12:07:02;;;;;;;11.20;9.30;;;27.50;77.60;;;;;;4379341;32;20220;-63
2021/07/03 12:09:36;;;;;;;10.85;8.00;;;27.30;78.90;;;;;;4387172;32;20212;-63
2021/07/03 12:12:03;;;;;;;11.07;9.02;;;27.00;79.20;;;;;;4385265;32;20223;-62
2021/07/03 12:14:30;;;;;;;9.75;8.60;;;26.90;79.50;;;;;;4388867;32;20547;-62
2021/07/03 12:16:58;;;;;;;11.90;9.13;;;26.90;79.60;;;;;;4386280;32;20160;-60
2021/07/03 12:19:26;;;;;;;9.40;8.38;;;26.80;80.20;;;;;;4377226;32;20152;-62
2021/07/03 12:22:06;;;;;;;10.70;8.32;;;26.80;81.30;;;;;;4380256;32;20193;-62
2021/07/03 12:24:36;;;;;;;8.95;7.90;;;27.00;81.10;;;;;;4377287;32;20270;-61
2021/07/03 12:27:03;;;;;;;8.70;7.18;;;27.00;80.70;;;;;;4379883;32;20176;-61
2021/07/03 12:29:32;;;;;;;8.18;7.37;;;27.10;80.00;;;;;;4383218;32;20634;-62
2021/07/03 12:32:10;;;;;;;9.98;6.97;;;27.30;79.60;;;;;;4381223;32;20543;-61
2021/07/03 12:34:38;;;;;;;8.48;6.75;;;27.50;79.70;;;;;;4383212;32;20585;-62
2021/07/03 12:37:11;;;;;;;9.55;8.23;;;27.60;81.40;;;;;;4380751;32;20173;-61